My Meet Scores
Payton Sing, Flipstar Gymnastics Academy - MyMeetScores.com
Top100 | Top Teams | Upcoming Meets | Completed Meets | Latest | Add Scores | Help| Support | Bookmark and Share

Payton Sing, Flipstar Gymnastics Academy
Personal Bests
LevelVault BarsBeamFloorAA
39.6259.100 9.5759.40037.400
48.9509.300 9.6009.15036.900
Meet Scores
Date Meet Team Session Level Division Vault Bars Beam Floor AA
2019-03-22 Illinois Gymnastics State Championships Flipstar Gymnastics Academy 4 4 JR A 8.950 12 9.300 8 9.600 4 9.050 15T 36.900 6
2019-03-01 2019 MEGA Spring Invite Flipstar Gymnastics Academy All 4 All Ages 8.575 75T 8.700 56T 8.775 75T 8.650 94T 34.700 72T
2019-02-23 Kinetic Classic 2019 Flipstar Gymnastics Academy 1 4 Middle 8.275 25T 9.225 16 9.200 12T 8.925 15 35.625 16T
2019-02-08 Midwest Twisters Harley Meet Womens Flipstar Gymnastics Academy T09 4 10a 8.400 8 8.525 6 9.300 3 9.100 3 35.325 5
2019-01-11 Circle of Stars Gymnastics Flipstar Gymnastics Academy C07 4 Junior C 8.700 4 9.175 3 8.650 8 8.725 9 35.250 6
2018-12-07 Horton Invite Flipstar Gymnastics Academy 1 4 Yth B 8.675 7T 8.900 10T 9.375 2 9.100 8 36.050 7
2018-03-08 Level 4 & 5 State Flipstar Gymnastics Academy All 4 Yh A 8.025 28 7.750 26 9.150 16 8.375 26 33.300 27
2018-02-23 Kinetic Classic Flipstar Gymnastics Academy 7 4 Younger 7.875 70 8.050 77 8.200 86T 8.375 79T 32.500 86
2018-02-16 Big Classic Flipstar Gymnastics Academy 7B 4 Child B 8.525 6 8.025 14 9.200 9 9.150 10 34.900 10
2018-02-09 IGI Chicago Style Gymnastics Meet Flipstar Gymnastics Academy 2 4 211 Lake Shore Dr L4 B 8.100 20 7.700 23 8.875 12 8.350 18 33.025 19
2017-11-17 SCGA Classic Flipstar Gymnastics Academy 2 4 JrA 8.700 8 7.500 9 8.375 11 8.300 13 32.875 11
2017-11-10 Illinois NAWGJ Judges Cup 2017 Flipstar Gymnastics Academy G3 4 All Ages 8.575 20 8.700 31 8.675 30 7.250 71T 33.200 40
2017-03-30 2017 Illinois Level 3 & 5 State Flipstar Gymnastics Academy All 3 Yh B 9.625 6T 9.100 15T 9.575 3 9.100 15 37.400 7
2017-02-24 Kinetic Classic Flipstar Gymnastics Academy 4,5,6,7 3 All Ages 9.400 13T 8.600 75 8.750 59T 9.175 28T 35.925 47T
2017-02-17 Big Classic Flipstar Gymnastics Academy B 3 Child B 9.400 4T 8.650 20 9.400 1 9.400 3 36.850 3
2017-02-10 IGI Chicago Style Gymnastics Meet Flipstar Gymnastics Academy 222L 3 JrB 8.750 20 8.525 20 8.650 12 9.000 9 34.925 17
2016-12-09 Horton Invitational Flipstar Gymnastics Academy 8 3 JrD 9.300 1 8.450 7 8.775 5 8.700 8 35.225 6
2016-11-11 2016 Illinois Judges Cup Flipstar Gymnastics Academy B5 3 8 Year Old 9.200 5 8.650 6 9.050 1 9.025 2 35.925 2
2016-03-04 2016 Illinois Level 3 State Championships Flipstar Gymnastics Academy 3 Child-B 9.075 26 7.375 28 7.200 30 8.500 26 32.150 30
2016-01-22 King Arthur Invitational Flipstar Gymnastics Academy S13 3 Jr.A 8.800 11 8.350 12 8.350 12 8.175 12 33.675 12
Get your scores on
a t-shirt, pin, or hoodie

Order by December 12

www.lazysuits.com